sensor_id;sensor_type;location;lat;lon;timestamp;P1;durP1;ratioP1;P2;durP2;ratioP2
56171;SDS011;42052;41.634;-0.946;2024-01-30T00:02:00;4.57;;;3.55;;
56171;SDS011;42052;41.634;-0.946;2024-01-30T00:04:26;4.60;;;3.42;;
56171;SDS011;42052;41.634;-0.946;2024-01-30T00:06:52;4.53;;;3.65;;
56171;SDS011;42052;41.634;-0.946;2024-01-30T00:09:20;7.20;;;3.72;;
56171;SDS011;42052;41.634;-0.946;2024-01-30T00:11:46;3.72;;;3.25;;
56171;SDS011;42052;41.634;-0.946;2024-01-30T00:14:12;4.05;;;3.33;;
56171;SDS011;42052;41.634;-0.946;2024-01-30T00:16:37;4.32;;;3.10;;
56171;SDS011;42052;41.634;-0.946;2024-01-30T00:19:05;5.78;;;3.58;;
56171;SDS011;42052;41.634;-0.946;2024-01-30T00:21:31;5.20;;;3.50;;
56171;SDS011;42052;41.634;-0.946;2024-01-30T00:23:56;3.45;;;3.13;;
56171;SDS011;42052;41.634;-0.946;2024-01-30T00:26:22;4.80;;;3.33;;
56171;SDS011;42052;41.634;-0.946;2024-01-30T00:28:48;4.78;;;3.47;;
56171;SDS011;42052;41.634;-0.946;2024-01-30T00:31:14;4.40;;;3.35;;
56171;SDS011;42052;41.634;-0.946;2024-01-30T00:33:40;5.57;;;3.30;;
56171;SDS011;42052;41.634;-0.946;2024-01-30T00:36:07;5.28;;;3.40;;
56171;SDS011;42052;41.634;-0.946;2024-01-30T00:38:34;4.68;;;3.55;;
56171;SDS011;42052;41.634;-0.946;2024-01-30T00:41:00;3.92;;;3.08;;
56171;SDS011;42052;41.634;-0.946;2024-01-30T00:43:29;4.05;;;3.40;;
56171;SDS011;42052;41.634;-0.946;2024-01-30T00:45:56;4.63;;;3.42;;
56171;SDS011;42052;41.634;-0.946;2024-01-30T00:48:23;4.93;;;3.45;;
56171;SDS011;42052;41.634;-0.946;2024-01-30T00:50:49;4.93;;;3.20;;
56171;SDS011;42052;41.634;-0.946;2024-01-30T00:53:15;4.82;;;3.40;;
56171;SDS011;42052;41.634;-0.946;2024-01-30T00:55:41;4.00;;;3.50;;
56171;SDS011;42052;41.634;-0.946;2024-01-30T00:58:07;5.10;;;3.50;;
56171;SDS011;42052;41.634;-0.946;2024-01-30T01:00:33;3.90;;;3.47;;
56171;SDS011;42052;41.634;-0.946;2024-01-30T01:02:59;4.32;;;3.30;;
56171;SDS011;42052;41.634;-0.946;2024-01-30T01:05:29;4.45;;;3.53;;
56171;SDS011;42052;41.634;-0.946;2024-01-30T01:07:55;4.72;;;3.47;;
56171;SDS011;42052;41.634;-0.946;2024-01-30T01:10:21;4.05;;;3.40;;
56171;SDS011;42052;41.634;-0.946;2024-01-30T01:12:47;6.65;;;4.20;;
56171;SDS011;42052;41.634;-0.946;2024-01-30T01:15:13;5.88;;;3.47;;
56171;SDS011;42052;41.634;-0.946;2024-01-30T01:17:40;6.97;;;3.65;;
56171;SDS011;42052;41.634;-0.946;2024-01-30T01:20:06;6.13;;;3.75;;
56171;SDS011;42052;41.634;-0.946;2024-01-30T01:22:33;4.45;;;3.28;;
56171;SDS011;42052;41.634;-0.946;2024-01-30T01:25:00;3.58;;;3.20;;
56171;SDS011;42052;41.634;-0.946;2024-01-30T01:27:26;4.80;;;3.50;;
56171;SDS011;42052;41.634;-0.946;2024-01-30T01:29:52;9.32;;;3.28;;
56171;SDS011;42052;41.634;-0.946;2024-01-30T01:32:18;4.35;;;3.40;;
56171;SDS011;42052;41.634;-0.946;2024-01-30T01:34:44;4.07;;;3.13;;
56171;SDS011;42052;41.634;-0.946;2024-01-30T01:37:10;4.78;;;3.58;;
56171;SDS011;42052;41.634;-0.946;2024-01-30T01:39:36;5.28;;;3.78;;
56171;SDS011;42052;41.634;-0.946;2024-01-30T01:42:02;4.30;;;3.30;;
56171;SDS011;42052;41.634;-0.946;2024-01-30T01:44:28;4.18;;;3.50;;
56171;SDS011;42052;41.634;-0.946;2024-01-30T01:46:54;5.65;;;3.58;;
56171;SDS011;42052;41.634;-0.946;2024-01-30T01:49:22;6.35;;;3.50;;
56171;SDS011;42052;41.634;-0.946;2024-01-30T01:51:50;4.95;;;3.47;;
56171;SDS011;42052;41.634;-0.946;2024-01-30T01:54:18;4.13;;;3.25;;
56171;SDS011;42052;41.634;-0.946;2024-01-30T01:56:44;5.65;;;3.70;;
56171;SDS011;42052;41.634;-0.946;2024-01-30T01:59:11;4.13;;;3.67;;
56171;SDS011;42052;41.634;-0.946;2024-01-30T02:01:36;4.15;;;3.45;;
56171;SDS011;42052;41.634;-0.946;2024-01-30T02:04:09;4.78;;;3.60;;
56171;SDS011;42052;41.634;-0.946;2024-01-30T02:06:35;4.53;;;3.08;;
56171;SDS011;42052;41.634;-0.946;2024-01-30T02:09:00;5.45;;;3.70;;
56171;SDS011;42052;41.634;-0.946;2024-01-30T02:11:26;4.03;;;3.38;;
56171;SDS011;42052;41.634;-0.946;2024-01-30T02:13:53;6.38;;;3.53;;
56171;SDS011;42052;41.634;-0.946;2024-01-30T02:16:19;4.35;;;3.25;;
56171;SDS011;42052;41.634;-0.946;2024-01-30T02:18:45;4.93;;;3.50;;
56171;SDS011;42052;41.634;-0.946;2024-01-30T02:21:13;5.97;;;3.63;;
56171;SDS011;42052;41.634;-0.946;2024-01-30T02:23:43;4.60;;;3.65;;
56171;SDS011;42052;41.634;-0.946;2024-01-30T02:26:13;4.45;;;3.53;;
56171;SDS011;42052;41.634;-0.946;2024-01-30T02:28:39;5.20;;;3.50;;
56171;SDS011;42052;41.634;-0.946;2024-01-30T02:31:05;4.18;;;3.30;;
56171;SDS011;42052;41.634;-0.946;2024-01-30T02:33:31;4.45;;;3.45;;
56171;SDS011;42052;41.634;-0.946;2024-01-30T02:35:57;5.05;;;3.67;;
56171;SDS011;42052;41.634;-0.946;2024-01-30T02:38:23;4.18;;;3.28;;
56171;SDS011;42052;41.634;-0.946;2024-01-30T02:40:50;4.53;;;3.40;;
56171;SDS011;42052;41.634;-0.946;2024-01-30T02:43:16;4.72;;;3.40;;
56171;SDS011;42052;41.634;-0.946;2024-01-30T02:45:42;4.55;;;3.60;;
56171;SDS011;42052;41.634;-0.946;2024-01-30T02:48:08;4.53;;;3.22;;
56171;SDS011;42052;41.634;-0.946;2024-01-30T02:50:33;5.70;;;3.58;;
56171;SDS011;42052;41.634;-0.946;2024-01-30T02:52:59;4.65;;;3.30;;
56171;SDS011;42052;41.634;-0.946;2024-01-30T02:55:25;4.43;;;3.50;;
56171;SDS011;42052;41.634;-0.946;2024-01-30T02:57:51;3.70;;;3.30;;
56171;SDS011;42052;41.634;-0.946;2024-01-30T03:00:18;5.15;;;3.55;;
56171;SDS011;42052;41.634;-0.946;2024-01-30T03:02:44;4.82;;;3.45;;
56171;SDS011;42052;41.634;-0.946;2024-01-30T03:05:11;5.25;;;3.67;;
56171;SDS011;42052;41.634;-0.946;2024-01-30T03:07:37;4.35;;;3.22;;
56171;SDS011;42052;41.634;-0.946;2024-01-30T03:10:04;4.25;;;3.47;;
56171;SDS011;42052;41.634;-0.946;2024-01-30T03:12:31;4.55;;;3.50;;
56171;SDS011;42052;41.634;-0.946;2024-01-30T03:14:58;4.07;;;3.10;;
56171;SDS011;42052;41.634;-0.946;2024-01-30T03:17:24;4.55;;;3.38;;
56171;SDS011;42052;41.634;-0.946;2024-01-30T03:19:50;5.80;;;3.40;;
56171;SDS011;42052;41.634;-0.946;2024-01-30T03:22:16;4.43;;;3.58;;
56171;SDS011;42052;41.634;-0.946;2024-01-30T03:24:42;5.85;;;3.20;;
56171;SDS011;42052;41.634;-0.946;2024-01-30T03:27:08;3.95;;;3.10;;
56171;SDS011;42052;41.634;-0.946;2024-01-30T03:29:36;4.20;;;3.38;;
56171;SDS011;42052;41.634;-0.946;2024-01-30T03:32:02;3.60;;;3.15;;
56171;SDS011;42052;41.634;-0.946;2024-01-30T03:34:29;5.78;;;3.38;;
56171;SDS011;42052;41.634;-0.946;2024-01-30T03:36:55;4.20;;;3.50;;
56171;SDS011;42052;41.634;-0.946;2024-01-30T03:39:20;4.38;;;3.40;;
56171;SDS011;42052;41.634;-0.946;2024-01-30T03:41:46;4.10;;;3.20;;
56171;SDS011;42052;41.634;-0.946;2024-01-30T03:44:12;4.82;;;3.08;;
56171;SDS011;42052;41.634;-0.946;2024-01-30T03:46:38;4.15;;;3.33;;
56171;SDS011;42052;41.634;-0.946;2024-01-30T03:49:04;5.13;;;4.00;;
56171;SDS011;42052;41.634;-0.946;2024-01-30T03:51:30;5.28;;;3.45;;
56171;SDS011;42052;41.634;-0.946;2024-01-30T03:53:55;4.65;;;3.60;;
56171;SDS011;42052;41.634;-0.946;2024-01-30T03:56:21;4.28;;;3.08;;
56171;SDS011;42052;41.634;-0.946;2024-01-30T03:58:47;4.75;;;3.03;;
56171;SDS011;42052;41.634;-0.946;2024-01-30T04:01:13;5.43;;;3.40;;
56171;SDS011;42052;41.634;-0.946;2024-01-30T04:03:40;4.28;;;3.60;;
56171;SDS011;42052;41.634;-0.946;2024-01-30T04:06:06;4.50;;;3.45;;
56171;SDS011;42052;41.634;-0.946;2024-01-30T04:08:32;4.28;;;3.17;;
56171;SDS011;42052;41.634;-0.946;2024-01-30T04:10:58;4.50;;;3.30;;
56171;SDS011;42052;41.634;-0.946;2024-01-30T04:13:27;4.55;;;3.58;;
56171;SDS011;42052;41.634;-0.946;2024-01-30T04:15:53;4.47;;;3.38;;
56171;SDS011;42052;41.634;-0.946;2024-01-30T04:18:20;4.25;;;3.42;;
56171;SDS011;42052;41.634;-0.946;2024-01-30T04:20:46;4.43;;;3.40;;
56171;SDS011;42052;41.634;-0.946;2024-01-30T04:23:11;6.53;;;3.55;;
56171;SDS011;42052;41.634;-0.946;2024-01-30T04:25:37;5.28;;;3.10;;
56171;SDS011;42052;41.634;-0.946;2024-01-30T04:28:03;4.35;;;3.30;;
56171;SDS011;42052;41.634;-0.946;2024-01-30T04:30:29;5.78;;;3.42;;
56171;SDS011;42052;41.634;-0.946;2024-01-30T04:32:55;5.18;;;3.50;;
56171;SDS011;42052;41.634;-0.946;2024-01-30T04:35:21;4.38;;;3.70;;
56171;SDS011;42052;41.634;-0.946;2024-01-30T04:37:49;5.30;;;3.65;;
56171;SDS011;42052;41.634;-0.946;2024-01-30T04:40:20;4.97;;;3.40;;
56171;SDS011;42052;41.634;-0.946;2024-01-30T04:42:46;5.25;;;3.55;;
56171;SDS011;42052;41.634;-0.946;2024-01-30T04:45:12;7.57;;;3.80;;
56171;SDS011;42052;41.634;-0.946;2024-01-30T04:47:38;5.20;;;3.63;;
56171;SDS011;42052;41.634;-0.946;2024-01-30T04:50:05;5.15;;;3.42;;
56171;SDS011;42052;41.634;-0.946;2024-01-30T04:52:32;5.25;;;3.85;;
56171;SDS011;42052;41.634;-0.946;2024-01-30T04:54:58;5.38;;;3.78;;
56171;SDS011;42052;41.634;-0.946;2024-01-30T04:57:24;5.22;;;3.38;;
56171;SDS011;42052;41.634;-0.946;2024-01-30T04:59:50;5.03;;;3.88;;
56171;SDS011;42052;41.634;-0.946;2024-01-30T05:02:15;4.82;;;3.60;;
56171;SDS011;42052;41.634;-0.946;2024-01-30T05:04:41;3.58;;;3.10;;
56171;SDS011;42052;41.634;-0.946;2024-01-30T05:07:07;5.72;;;3.75;;
56171;SDS011;42052;41.634;-0.946;2024-01-30T05:09:33;5.07;;;3.80;;
56171;SDS011;42052;41.634;-0.946;2024-01-30T05:11:59;4.20;;;3.55;;
56171;SDS011;42052;41.634;-0.946;2024-01-30T05:14:24;4.85;;;3.70;;
56171;SDS011;42052;41.634;-0.946;2024-01-30T05:16:50;5.38;;;3.67;;
56171;SDS011;42052;41.634;-0.946;2024-01-30T05:19:16;3.97;;;3.58;;
56171;SDS011;42052;41.634;-0.946;2024-01-30T05:21:42;4.32;;;3.30;;
56171;SDS011;42052;41.634;-0.946;2024-01-30T05:24:09;4.78;;;3.80;;
56171;SDS011;42052;41.634;-0.946;2024-01-30T05:26:35;3.70;;;3.30;;
56171;SDS011;42052;41.634;-0.946;2024-01-30T05:29:01;5.45;;;4.00;;
56171;SDS011;42052;41.634;-0.946;2024-01-30T05:31:27;6.88;;;3.63;;
56171;SDS011;42052;41.634;-0.946;2024-01-30T05:33:54;4.80;;;3.83;;
56171;SDS011;42052;41.634;-0.946;2024-01-30T05:36:20;5.80;;;3.88;;
56171;SDS011;42052;41.634;-0.946;2024-01-30T05:38:46;5.28;;;3.88;;
56171;SDS011;42052;41.634;-0.946;2024-01-30T05:41:12;4.68;;;3.63;;
56171;SDS011;42052;41.634;-0.946;2024-01-30T05:43:38;5.30;;;3.75;;
56171;SDS011;42052;41.634;-0.946;2024-01-30T05:46:04;4.35;;;3.50;;
56171;SDS011;42052;41.634;-0.946;2024-01-30T05:48:31;7.07;;;3.80;;
56171;SDS011;42052;41.634;-0.946;2024-01-30T05:50:58;4.60;;;3.90;;
56171;SDS011;42052;41.634;-0.946;2024-01-30T05:53:25;4.68;;;4.15;;
56171;SDS011;42052;41.634;-0.946;2024-01-30T05:55:51;5.20;;;4.10;;
56171;SDS011;42052;41.634;-0.946;2024-01-30T05:58:16;5.70;;;4.03;;
56171;SDS011;42052;41.634;-0.946;2024-01-30T06:00:43;7.13;;;4.00;;
56171;SDS011;42052;41.634;-0.946;2024-01-30T06:03:09;4.97;;;3.95;;
56171;SDS011;42052;41.634;-0.946;2024-01-30T06:05:35;5.43;;;4.00;;
56171;SDS011;42052;41.634;-0.946;2024-01-30T06:08:02;5.00;;;4.15;;
56171;SDS011;42052;41.634;-0.946;2024-01-30T06:10:30;5.55;;;4.05;;
56171;SDS011;42052;41.634;-0.946;2024-01-30T06:12:56;7.95;;;4.07;;
56171;SDS011;42052;41.634;-0.946;2024-01-30T06:15:25;6.07;;;4.20;;
56171;SDS011;42052;41.634;-0.946;2024-01-30T06:17:51;5.10;;;3.40;;
56171;SDS011;42052;41.634;-0.946;2024-01-30T06:20:17;7.90;;;4.28;;
56171;SDS011;42052;41.634;-0.946;2024-01-30T06:22:43;12.55;;;5.10;;
56171;SDS011;42052;41.634;-0.946;2024-01-30T06:25:08;10.90;;;5.57;;
56171;SDS011;42052;41.634;-0.946;2024-01-30T06:27:35;11.38;;;5.40;;
56171;SDS011;42052;41.634;-0.946;2024-01-30T06:30:01;14.90;;;6.68;;
56171;SDS011;42052;41.634;-0.946;2024-01-30T06:32:27;19.35;;;6.20;;
56171;SDS011;42052;41.634;-0.946;2024-01-30T06:34:53;20.00;;;6.53;;
56171;SDS011;42052;41.634;-0.946;2024-01-30T06:37:20;18.50;;;6.72;;
56171;SDS011;42052;41.634;-0.946;2024-01-30T06:39:46;26.27;;;8.70;;
56171;SDS011;42052;41.634;-0.946;2024-01-30T06:42:12;22.98;;;8.35;;
56171;SDS011;42052;41.634;-0.946;2024-01-30T06:44:41;35.80;;;8.45;;
56171;SDS011;42052;41.634;-0.946;2024-01-30T06:47:08;30.35;;;9.07;;
56171;SDS011;42052;41.634;-0.946;2024-01-30T06:49:35;32.22;;;8.98;;
56171;SDS011;42052;41.634;-0.946;2024-01-30T06:52:04;24.45;;;8.18;;
56171;SDS011;42052;41.634;-0.946;2024-01-30T06:54:30;21.52;;;8.32;;
56171;SDS011;42052;41.634;-0.946;2024-01-30T06:56:57;25.98;;;8.48;;
56171;SDS011;42052;41.634;-0.946;2024-01-30T06:59:23;23.65;;;7.97;;
56171;SDS011;42052;41.634;-0.946;2024-01-30T07:01:51;20.00;;;5.93;;
56171;SDS011;42052;41.634;-0.946;2024-01-30T07:04:17;13.30;;;4.90;;
56171;SDS011;42052;41.634;-0.946;2024-01-30T07:06:43;20.50;;;6.80;;
56171;SDS011;42052;41.634;-0.946;2024-01-30T07:09:11;21.15;;;7.03;;
56171;SDS011;42052;41.634;-0.946;2024-01-30T07:11:38;18.38;;;6.82;;
56171;SDS011;42052;41.634;-0.946;2024-01-30T07:14:04;21.15;;;7.20;;
56171;SDS011;42052;41.634;-0.946;2024-01-30T07:16:31;19.10;;;7.38;;
56171;SDS011;42052;41.634;-0.946;2024-01-30T07:18:57;17.70;;;6.88;;
56171;SDS011;42052;41.634;-0.946;2024-01-30T07:21:23;19.08;;;6.72;;
56171;SDS011;42052;41.634;-0.946;2024-01-30T07:23:54;18.35;;;7.22;;
56171;SDS011;42052;41.634;-0.946;2024-01-30T07:26:20;17.00;;;6.53;;
56171;SDS011;42052;41.634;-0.946;2024-01-30T07:28:46;17.17;;;6.85;;
56171;SDS011;42052;41.634;-0.946;2024-01-30T07:31:13;17.83;;;6.80;;
56171;SDS011;42052;41.634;-0.946;2024-01-30T07:33:39;18.60;;;6.63;;
56171;SDS011;42052;41.634;-0.946;2024-01-30T07:36:05;18.15;;;6.93;;
56171;SDS011;42052;41.634;-0.946;2024-01-30T07:38:31;16.27;;;6.88;;
56171;SDS011;42052;41.634;-0.946;2024-01-30T07:40:57;16.02;;;6.70;;
56171;SDS011;42052;41.634;-0.946;2024-01-30T07:43:23;15.52;;;6.40;;
56171;SDS011;42052;41.634;-0.946;2024-01-30T07:45:49;14.73;;;6.95;;
56171;SDS011;42052;41.634;-0.946;2024-01-30T07:48:15;18.83;;;6.72;;
56171;SDS011;42052;41.634;-0.946;2024-01-30T07:50:41;15.57;;;6.88;;
56171;SDS011;42052;41.634;-0.946;2024-01-30T07:53:07;13.27;;;6.28;;
56171;SDS011;42052;41.634;-0.946;2024-01-30T07:55:33;12.05;;;6.05;;
56171;SDS011;42052;41.634;-0.946;2024-01-30T07:57:59;16.10;;;6.75;;
56171;SDS011;42052;41.634;-0.946;2024-01-30T08:00:26;15.85;;;6.75;;
56171;SDS011;42052;41.634;-0.946;2024-01-30T08:02:52;16.40;;;6.47;;
56171;SDS011;42052;41.634;-0.946;2024-01-30T08:05:19;12.13;;;6.35;;
56171;SDS011;42052;41.634;-0.946;2024-01-30T08:07:47;15.05;;;5.93;;
56171;SDS011;42052;41.634;-0.946;2024-01-30T08:10:13;11.35;;;6.43;;
56171;SDS011;42052;41.634;-0.946;2024-01-30T08:12:40;13.15;;;6.85;;
56171;SDS011;42052;41.634;-0.946;2024-01-30T08:15:06;15.60;;;6.60;;
56171;SDS011;42052;41.634;-0.946;2024-01-30T08:17:33;15.07;;;6.32;;
56171;SDS011;42052;41.634;-0.946;2024-01-30T08:19:59;13.50;;;6.22;;
56171;SDS011;42052;41.634;-0.946;2024-01-30T08:22:25;13.50;;;6.50;;
56171;SDS011;42052;41.634;-0.946;2024-01-30T08:24:51;12.00;;;6.03;;
56171;SDS011;42052;41.634;-0.946;2024-01-30T08:27:17;11.90;;;6.22;;
56171;SDS011;42052;41.634;-0.946;2024-01-30T08:29:42;10.82;;;6.05;;
56171;SDS011;42052;41.634;-0.946;2024-01-30T08:32:08;11.35;;;6.38;;
56171;SDS011;42052;41.634;-0.946;2024-01-30T08:34:34;9.30;;;6.07;;
56171;SDS011;42052;41.634;-0.946;2024-01-30T08:37:00;11.57;;;5.65;;
56171;SDS011;42052;41.634;-0.946;2024-01-30T08:39:26;9.98;;;6.00;;
56171;SDS011;42052;41.634;-0.946;2024-01-30T08:41:52;11.77;;;5.65;;
56171;SDS011;42052;41.634;-0.946;2024-01-30T08:44:17;9.95;;;5.68;;
56171;SDS011;42052;41.634;-0.946;2024-01-30T08:46:44;8.68;;;5.78;;
56171;SDS011;42052;41.634;-0.946;2024-01-30T08:49:16;8.90;;;5.45;;
56171;SDS011;42052;41.634;-0.946;2024-01-30T08:51:42;8.52;;;5.93;;
56171;SDS011;42052;41.634;-0.946;2024-01-30T08:54:07;10.60;;;5.55;;
56171;SDS011;42052;41.634;-0.946;2024-01-30T08:56:33;8.95;;;5.22;;
56171;SDS011;42052;41.634;-0.946;2024-01-30T08:58:59;9.05;;;5.40;;
56171;SDS011;42052;41.634;-0.946;2024-01-30T09:01:25;8.02;;;5.20;;
56171;SDS011;42052;41.634;-0.946;2024-01-30T09:03:51;10.75;;;5.75;;
56171;SDS011;42052;41.634;-0.946;2024-01-30T09:06:17;10.38;;;5.78;;
56171;SDS011;42052;41.634;-0.946;2024-01-30T09:08:43;9.10;;;5.95;;
56171;SDS011;42052;41.634;-0.946;2024-01-30T09:11:09;10.48;;;5.30;;
56171;SDS011;42052;41.634;-0.946;2024-01-30T09:13:36;10.23;;;5.45;;
56171;SDS011;42052;41.634;-0.946;2024-01-30T09:16:03;8.93;;;5.70;;
56171;SDS011;42052;41.634;-0.946;2024-01-30T09:18:29;8.25;;;5.50;;
56171;SDS011;42052;41.634;-0.946;2024-01-30T09:20:55;8.73;;;5.30;;
56171;SDS011;42052;41.634;-0.946;2024-01-30T09:23:21;9.63;;;5.60;;
56171;SDS011;42052;41.634;-0.946;2024-01-30T09:25:47;9.63;;;5.40;;
56171;SDS011;42052;41.634;-0.946;2024-01-30T09:28:13;9.55;;;5.25;;
56171;SDS011;42052;41.634;-0.946;2024-01-30T09:30:39;9.32;;;5.80;;
56171;SDS011;42052;41.634;-0.946;2024-01-30T09:33:06;7.40;;;5.13;;
56171;SDS011;42052;41.634;-0.946;2024-01-30T09:35:32;11.30;;;5.50;;
56171;SDS011;42052;41.634;-0.946;2024-01-30T09:38:01;8.40;;;5.10;;
56171;SDS011;42052;41.634;-0.946;2024-01-30T09:40:27;8.48;;;5.18;;
56171;SDS011;42052;41.634;-0.946;2024-01-30T09:42:52;9.23;;;5.50;;
56171;SDS011;42052;41.634;-0.946;2024-01-30T09:45:19;7.75;;;5.05;;
56171;SDS011;42052;41.634;-0.946;2024-01-30T09:47:49;9.00;;;5.13;;
56171;SDS011;42052;41.634;-0.946;2024-01-30T09:50:16;8.35;;;5.10;;
56171;SDS011;42052;41.634;-0.946;2024-01-30T09:52:46;6.63;;;4.97;;
56171;SDS011;42052;41.634;-0.946;2024-01-30T09:55:12;7.57;;;4.90;;
56171;SDS011;42052;41.634;-0.946;2024-01-30T09:57:39;7.90;;;4.80;;
56171;SDS011;42052;41.634;-0.946;2024-01-30T10:00:06;7.97;;;5.15;;
56171;SDS011;42052;41.634;-0.946;2024-01-30T10:02:34;7.22;;;4.95;;
56171;SDS011;42052;41.634;-0.946;2024-01-30T10:05:00;8.10;;;4.80;;
56171;SDS011;42052;41.634;-0.946;2024-01-30T10:07:27;6.60;;;4.70;;
56171;SDS011;42052;41.634;-0.946;2024-01-30T10:09:53;6.50;;;5.00;;
56171;SDS011;42052;41.634;-0.946;2024-01-30T10:12:21;7.63;;;4.93;;
56171;SDS011;42052;41.634;-0.946;2024-01-30T10:14:48;7.78;;;4.57;;
56171;SDS011;42052;41.634;-0.946;2024-01-30T10:17:14;7.25;;;4.80;;
56171;SDS011;42052;41.634;-0.946;2024-01-30T10:19:41;8.13;;;4.90;;
56171;SDS011;42052;41.634;-0.946;2024-01-30T10:22:08;7.13;;;4.65;;
56171;SDS011;42052;41.634;-0.946;2024-01-30T10:24:34;6.28;;;4.88;;
56171;SDS011;42052;41.634;-0.946;2024-01-30T10:27:01;5.88;;;4.43;;
56171;SDS011;42052;41.634;-0.946;2024-01-30T10:29:27;6.40;;;4.45;;
56171;SDS011;42052;41.634;-0.946;2024-01-30T10:32:00;7.78;;;5.00;;
56171;SDS011;42052;41.634;-0.946;2024-01-30T10:34:28;7.88;;;4.55;;
56171;SDS011;42052;41.634;-0.946;2024-01-30T10:37:10;8.07;;;4.55;;
56171;SDS011;42052;41.634;-0.946;2024-01-30T10:39:43;6.95;;;4.40;;
56171;SDS011;42052;41.634;-0.946;2024-01-30T10:42:13;5.25;;;3.92;;
56171;SDS011;42052;41.634;-0.946;2024-01-30T10:45:05;5.85;;;4.35;;
56171;SDS011;42052;41.634;-0.946;2024-01-30T10:47:37;6.20;;;4.32;;
56171;SDS011;42052;41.634;-0.946;2024-01-30T10:50:09;6.68;;;4.20;;
56171;SDS011;42052;41.634;-0.946;2024-01-30T10:52:36;5.93;;;4.00;;
56171;SDS011;42052;41.634;-0.946;2024-01-30T10:55:03;6.03;;;4.50;;
56171;SDS011;42052;41.634;-0.946;2024-01-30T10:57:36;5.85;;;3.85;;
56171;SDS011;42052;41.634;-0.946;2024-01-30T11:00:10;6.82;;;4.05;;
56171;SDS011;42052;41.634;-0.946;2024-01-30T11:02:43;5.05;;;3.80;;
56171;SDS011;42052;41.634;-0.946;2024-01-30T11:05:10;6.03;;;3.70;;
56171;SDS011;42052;41.634;-0.946;2024-01-30T11:07:38;5.78;;;3.92;;
56171;SDS011;42052;41.634;-0.946;2024-01-30T11:10:06;5.47;;;4.00;;
56171;SDS011;42052;41.634;-0.946;2024-01-30T11:12:37;6.18;;;4.05;;
56171;SDS011;42052;41.634;-0.946;2024-01-30T11:15:13;6.88;;;4.13;;
56171;SDS011;42052;41.634;-0.946;2024-01-30T11:17:43;5.82;;;4.00;;
56171;SDS011;42052;41.634;-0.946;2024-01-30T11:20:11;7.38;;;3.85;;
56171;SDS011;42052;41.634;-0.946;2024-01-30T11:22:41;5.25;;;4.07;;
56171;SDS011;42052;41.634;-0.946;2024-01-30T11:25:17;6.15;;;3.72;;
56171;SDS011;42052;41.634;-0.946;2024-01-30T11:27:46;5.68;;;3.97;;
56171;SDS011;42052;41.634;-0.946;2024-01-30T11:33:14;6.50;;;4.20;;
56171;SDS011;42052;41.634;-0.946;2024-01-30T11:35:44;5.22;;;3.75;;
56171;SDS011;42052;41.634;-0.946;2024-01-30T11:38:13;4.97;;;3.58;;
56171;SDS011;42052;41.634;-0.946;2024-01-30T11:40:40;6.13;;;3.75;;
56171;SDS011;42052;41.634;-0.946;2024-01-30T11:43:06;6.07;;;3.75;;
56171;SDS011;42052;41.634;-0.946;2024-01-30T11:45:34;6.75;;;3.70;;
56171;SDS011;42052;41.634;-0.946;2024-01-30T11:48:01;6.25;;;3.63;;
56171;SDS011;42052;41.634;-0.946;2024-01-30T11:50:31;5.25;;;3.80;;
56171;SDS011;42052;41.634;-0.946;2024-01-30T11:53:03;5.03;;;3.47;;
56171;SDS011;42052;41.634;-0.946;2024-01-30T11:55:30;4.78;;;3.65;;
56171;SDS011;42052;41.634;-0.946;2024-01-30T11:57:59;5.57;;;3.60;;
56171;SDS011;42052;41.634;-0.946;2024-01-30T12:00:25;6.60;;;3.50;;
56171;SDS011;42052;41.634;-0.946;2024-01-30T12:02:55;4.82;;;3.60;;
56171;SDS011;42052;41.634;-0.946;2024-01-30T12:05:24;5.97;;;3.83;;
56171;SDS011;42052;41.634;-0.946;2024-01-30T12:07:50;4.38;;;3.40;;
56171;SDS011;42052;41.634;-0.946;2024-01-30T12:10:17;4.60;;;3.55;;
56171;SDS011;42052;41.634;-0.946;2024-01-30T12:12:43;4.90;;;3.85;;
56171;SDS011;42052;41.634;-0.946;2024-01-30T12:15:14;7.57;;;3.85;;
56171;SDS011;42052;41.634;-0.946;2024-01-30T12:17:40;4.68;;;3.70;;
56171;SDS011;42052;41.634;-0.946;2024-01-30T12:22:42;5.13;;;3.67;;
56171;SDS011;42052;41.634;-0.946;2024-01-30T12:25:09;4.65;;;3.58;;
56171;SDS011;42052;41.634;-0.946;2024-01-30T12:27:36;4.95;;;3.30;;
56171;SDS011;42052;41.634;-0.946;2024-01-30T12:30:06;5.50;;;3.88;;
56171;SDS011;42052;41.634;-0.946;2024-01-30T12:32:36;4.38;;;3.45;;
56171;SDS011;42052;41.634;-0.946;2024-01-30T12:35:11;6.50;;;3.67;;
56171;SDS011;42052;41.634;-0.946;2024-01-30T12:37:38;7.13;;;3.47;;
56171;SDS011;42052;41.634;-0.946;2024-01-30T12:40:05;4.05;;;3.20;;
56171;SDS011;42052;41.634;-0.946;2024-01-30T12:42:32;4.82;;;3.45;;
56171;SDS011;42052;41.634;-0.946;2024-01-30T12:44:58;4.57;;;3.50;;
56171;SDS011;42052;41.634;-0.946;2024-01-30T12:47:25;4.50;;;3.58;;
56171;SDS011;42052;41.634;-0.946;2024-01-30T12:49:51;5.40;;;3.47;;
56171;SDS011;42052;41.634;-0.946;2024-01-30T12:52:18;4.93;;;3.30;;
56171;SDS011;42052;41.634;-0.946;2024-01-30T12:54:46;4.30;;;3.10;;
56171;SDS011;42052;41.634;-0.946;2024-01-30T12:57:16;5.97;;;3.35;;
56171;SDS011;42052;41.634;-0.946;2024-01-30T12:59:43;4.00;;;3.40;;
56171;SDS011;42052;41.634;-0.946;2024-01-30T13:02:10;4.53;;;2.90;;
56171;SDS011;42052;41.634;-0.946;2024-01-30T13:04:37;5.60;;;3.38;;
56171;SDS011;42052;41.634;-0.946;2024-01-30T13:07:03;5.38;;;3.50;;
56171;SDS011;42052;41.634;-0.946;2024-01-30T13:09:29;3.72;;;3.13;;
56171;SDS011;42052;41.634;-0.946;2024-01-30T13:11:58;4.90;;;3.58;;
56171;SDS011;42052;41.634;-0.946;2024-01-30T13:14:25;4.20;;;3.17;;
56171;SDS011;42052;41.634;-0.946;2024-01-30T13:16:51;4.28;;;3.38;;
56171;SDS011;42052;41.634;-0.946;2024-01-30T13:19:17;4.57;;;3.25;;
56171;SDS011;42052;41.634;-0.946;2024-01-30T13:21:43;4.72;;;3.25;;
56171;SDS011;42052;41.634;-0.946;2024-01-30T13:24:09;5.97;;;3.60;;
56171;SDS011;42052;41.634;-0.946;2024-01-30T13:26:35;3.72;;;3.10;;
56171;SDS011;42052;41.634;-0.946;2024-01-30T13:29:01;5.07;;;3.50;;
56171;SDS011;42052;41.634;-0.946;2024-01-30T13:31:27;7.10;;;3.72;;
56171;SDS011;42052;41.634;-0.946;2024-01-30T13:33:54;5.75;;;3.30;;
56171;SDS011;42052;41.634;-0.946;2024-01-30T13:36:20;4.45;;;3.28;;
56171;SDS011;42052;41.634;-0.946;2024-01-30T13:38:46;5.20;;;3.50;;
56171;SDS011;42052;41.634;-0.946;2024-01-30T13:41:12;5.25;;;3.40;;
56171;SDS011;42052;41.634;-0.946;2024-01-30T13:43:38;4.93;;;3.42;;
56171;SDS011;42052;41.634;-0.946;2024-01-30T13:46:04;4.30;;;3.40;;
56171;SDS011;42052;41.634;-0.946;2024-01-30T13:48:31;5.00;;;3.45;;
56171;SDS011;42052;41.634;-0.946;2024-01-30T13:50:57;4.38;;;3.20;;
56171;SDS011;42052;41.634;-0.946;2024-01-30T13:53:23;4.85;;;3.45;;
56171;SDS011;42052;41.634;-0.946;2024-01-30T13:55:48;4.25;;;3.15;;
56171;SDS011;42052;41.634;-0.946;2024-01-30T13:58:14;5.22;;;3.50;;
56171;SDS011;42052;41.634;-0.946;2024-01-30T14:00:40;4.05;;;3.40;;
56171;SDS011;42052;41.634;-0.946;2024-01-30T14:03:06;4.03;;;3.28;;
56171;SDS011;42052;41.634;-0.946;2024-01-30T14:05:32;4.13;;;3.33;;
56171;SDS011;42052;41.634;-0.946;2024-01-30T14:07:58;4.22;;;3.45;;
56171;SDS011;42052;41.634;-0.946;2024-01-30T14:10:25;3.78;;;3.20;;
56171;SDS011;42052;41.634;-0.946;2024-01-30T14:12:51;4.82;;;3.42;;
56171;SDS011;42052;41.634;-0.946;2024-01-30T14:15:17;5.10;;;3.28;;
56171;SDS011;42052;41.634;-0.946;2024-01-30T14:17:43;4.63;;;3.10;;
56171;SDS011;42052;41.634;-0.946;2024-01-30T14:20:10;6.03;;;3.45;;
56171;SDS011;42052;41.634;-0.946;2024-01-30T14:22:36;3.80;;;3.10;;
56171;SDS011;42052;41.634;-0.946;2024-01-30T14:25:02;4.57;;;3.38;;
56171;SDS011;42052;41.634;-0.946;2024-01-30T14:27:31;4.65;;;3.50;;
56171;SDS011;42052;41.634;-0.946;2024-01-30T14:29:58;4.90;;;3.50;;
56171;SDS011;42052;41.634;-0.946;2024-01-30T14:32:24;5.30;;;3.60;;
56171;SDS011;42052;41.634;-0.946;2024-01-30T14:34:50;4.18;;;3.08;;
56171;SDS011;42052;41.634;-0.946;2024-01-30T14:37:20;4.88;;;3.20;;